sensor_id;sensor_type;location;lat;lon;timestamp;pressure;altitude;pressure_sealevel;temperature;humidity
72802;BME280;61891;55.818;37.084;2023-05-24T00:01:45;99546.41;;;16.73;68.06
72802;BME280;61891;55.818;37.084;2023-05-24T00:04:12;99551.38;;;16.76;68.08
72802;BME280;61891;55.818;37.084;2023-05-24T00:06:39;99529.88;;;16.56;67.58
72802;BME280;61891;55.818;37.084;2023-05-24T00:09:06;99501.00;;;16.38;67.90
72802;BME280;61891;55.818;37.084;2023-05-24T00:11:32;99527.41;;;16.61;68.49
72802;BME280;61891;55.818;37.084;2023-05-24T00:13:58;99530.13;;;16.68;68.32
72802;BME280;61891;55.818;37.084;2023-05-24T00:16:24;99534.47;;;16.69;68.52
72802;BME280;61891;55.818;37.084;2023-05-24T00:18:49;99517.72;;;16.60;68.47
72802;BME280;61891;55.818;37.084;2023-05-24T00:21:16;99540.25;;;16.72;68.63
72802;BME280;61891;55.818;37.084;2023-05-24T00:23:42;99532.63;;;16.69;68.45
72802;BME280;61891;55.818;37.084;2023-05-24T00:26:08;99532.00;;;16.74;68.64
72802;BME280;61891;55.818;37.084;2023-05-24T00:28:34;99526.84;;;16.72;68.75
72802;BME280;61891;55.818;37.084;2023-05-24T00:30:59;99530.34;;;16.73;68.78
72802;BME280;61891;55.818;37.084;2023-05-24T00:33:26;99528.31;;;16.75;68.54
72802;BME280;61891;55.818;37.084;2023-05-24T00:35:53;99476.94;;;16.45;68.81
72802;BME280;61891;55.818;37.084;2023-05-24T00:38:24;99506.44;;;16.65;68.73
72802;BME280;61891;55.818;37.084;2023-05-24T00:40:53;99473.44;;;16.44;68.47
72802;BME280;61891;55.818;37.084;2023-05-24T00:43:21;99519.63;;;16.66;68.92
72802;BME280;61891;55.818;37.084;2023-05-24T00:45:47;99512.19;;;16.62;68.73
72802;BME280;61891;55.818;37.084;2023-05-24T00:48:13;99493.41;;;16.49;68.82
72802;BME280;61891;55.818;37.084;2023-05-24T00:50:40;99508.66;;;16.55;68.90
72802;BME280;61891;55.818;37.084;2023-05-24T00:53:06;99482.47;;;16.37;68.78
72802;BME280;61891;55.818;37.084;2023-05-24T00:55:34;99449.47;;;16.17;68.62
72802;BME280;61891;55.818;37.084;2023-05-24T00:58:01;99491.34;;;16.44;68.77
72802;BME280;61891;55.818;37.084;2023-05-24T01:00:28;99486.19;;;16.42;68.85
72802;BME280;61891;55.818;37.084;2023-05-24T01:02:54;99502.69;;;16.53;68.87
72802;BME280;61891;55.818;37.084;2023-05-24T01:05:20;99510.72;;;16.59;68.98
72802;BME280;61891;55.818;37.084;2023-05-24T01:11:16;99500.44;;;16.56;69.22
72802;BME280;61891;55.818;37.084;2023-05-24T01:16:10;99481.66;;;16.43;68.58
72802;BME280;61891;55.818;37.084;2023-05-24T01:18:54;99474.88;;;16.47;69.22
72802;BME280;61891;55.818;37.084;2023-05-24T01:27:06;99493.28;;;16.70;68.67
72802;BME280;61891;55.818;37.084;2023-05-24T01:29:34;99489.78;;;16.69;68.71
72802;BME280;61891;55.818;37.084;2023-05-24T01:32:01;99494.31;;;16.75;68.68
72802;BME280;61891;55.818;37.084;2023-05-24T01:34:27;99444.44;;;16.55;68.49
72802;BME280;61891;55.818;37.084;2023-05-24T01:36:53;99497.63;;;16.78;68.54
72802;BME280;61891;55.818;37.084;2023-05-24T01:39:20;99488.78;;;16.77;68.57
72802;BME280;61891;55.818;37.084;2023-05-24T01:44:33;99489.59;;;16.78;68.65
72802;BME280;61891;55.818;37.084;2023-05-24T01:47:16;99396.44;;;16.27;69.02
72802;BME280;61891;55.818;37.084;2023-05-24T01:49:50;99448.78;;;16.62;68.99
72802;BME280;61891;55.818;37.084;2023-05-24T01:52:21;99487.94;;;16.83;68.83
72802;BME280;61891;55.818;37.084;2023-05-24T01:54:51;99475.59;;;16.82;68.83
72802;BME280;61891;55.818;37.084;2023-05-24T01:57:18;99457.47;;;16.71;69.03
72802;BME280;61891;55.818;37.084;2023-05-24T01:59:46;99464.47;;;16.79;68.60
72802;BME280;61891;55.818;37.084;2023-05-24T02:02:12;99484.47;;;16.89;68.82
72802;BME280;61891;55.818;37.084;2023-05-24T02:04:39;99486.31;;;16.89;68.86
72802;BME280;61891;55.818;37.084;2023-05-24T02:07:05;99488.78;;;16.90;68.70
72802;BME280;61891;55.818;37.084;2023-05-24T02:09:31;99455.19;;;16.74;68.77
72802;BME280;61891;55.818;37.084;2023-05-24T02:11:57;99482.81;;;16.95;68.83
72802;BME280;61891;55.818;37.084;2023-05-24T02:14:23;99467.38;;;16.90;68.72
72802;BME280;61891;55.818;37.084;2023-05-24T02:16:49;99471.28;;;16.94;68.86
72802;BME280;61891;55.818;37.084;2023-05-24T02:19:15;99477.66;;;17.00;68.79
72802;BME280;61891;55.818;37.084;2023-05-24T02:21:44;99471.06;;;16.96;68.66
72802;BME280;61891;55.818;37.084;2023-05-24T02:24:10;99483.44;;;17.03;68.76
72802;BME280;61891;55.818;37.084;2023-05-24T02:26:37;99459.13;;;16.92;68.87
72802;BME280;61891;55.818;37.084;2023-05-24T02:29:03;99482.81;;;17.08;68.97
72802;BME280;61891;55.818;37.084;2023-05-24T02:31:29;99442.66;;;16.82;69.01
72802;BME280;61891;55.818;37.084;2023-05-24T02:33:56;99442.44;;;16.83;69.07
72802;BME280;61891;55.818;37.084;2023-05-24T02:36:22;99469.00;;;16.98;69.09
72802;BME280;61891;55.818;37.084;2023-05-24T02:38:49;99459.13;;;16.92;69.18
72802;BME280;61891;55.818;37.084;2023-05-24T02:41:15;99433.16;;;16.72;69.15
72802;BME280;61891;55.818;37.084;2023-05-24T02:43:43;99488.19;;;17.08;69.26
72802;BME280;61891;55.818;37.084;2023-05-24T02:46:09;99462.41;;;16.94;68.91
72802;BME280;61891;55.818;37.084;2023-05-24T02:48:35;99480.97;;;17.08;69.29
72802;BME280;61891;55.818;37.084;2023-05-24T02:51:01;99456.66;;;16.97;69.36
72802;BME280;61891;55.818;37.084;2023-05-24T02:53:30;99455.41;;;16.93;69.17
72802;BME280;61891;55.818;37.084;2023-05-24T02:55:58;99477.88;;;17.05;69.08
72802;BME280;61891;55.818;37.084;2023-05-24T02:58:24;99469.63;;;17.00;69.18
72802;BME280;61891;55.818;37.084;2023-05-24T03:00:54;99475.59;;;17.02;69.07
72802;BME280;61891;55.818;37.084;2023-05-24T03:03:20;99464.06;;;16.95;69.12
72802;BME280;61891;55.818;37.084;2023-05-24T03:05:46;99434.19;;;16.85;69.21
72802;BME280;61891;55.818;37.084;2023-05-24T03:08:12;99475.19;;;17.12;69.40
72802;BME280;61891;55.818;37.084;2023-05-24T03:10:38;99438.53;;;16.92;69.35
72802;BME280;61891;55.818;37.084;2023-05-24T03:13:05;99463.66;;;17.18;69.21
72802;BME280;61891;55.818;37.084;2023-05-24T03:15:31;99473.94;;;17.27;68.98
72802;BME280;61891;55.818;37.084;2023-05-24T03:17:57;99460.56;;;17.27;68.86
72802;BME280;61891;55.818;37.084;2023-05-24T03:20:23;99454.16;;;17.35;68.83
72802;BME280;61891;55.818;37.084;2023-05-24T03:22:50;99463.59;;;17.57;68.75
72802;BME280;61891;55.818;37.084;2023-05-24T03:25:16;99466.91;;;17.66;68.65
72802;BME280;61891;55.818;37.084;2023-05-24T03:27:41;99464.22;;;17.73;68.07
72802;BME280;61891;55.818;37.084;2023-05-24T03:30:08;99437.44;;;17.66;67.97
72802;BME280;61891;55.818;37.084;2023-05-24T03:32:42;99445.41;;;17.86;67.97
72802;BME280;61891;55.818;37.084;2023-05-24T03:35:08;99419.44;;;17.80;67.80
72802;BME280;61891;55.818;37.084;2023-05-24T03:37:37;99431.72;;;18.00;67.62
72802;BME280;61891;55.818;37.084;2023-05-24T03:40:03;99444.22;;;18.20;67.66
72802;BME280;61891;55.818;37.084;2023-05-24T03:42:52;99441.28;;;18.28;66.98
72802;BME280;61891;55.818;37.084;2023-05-24T03:45:22;99436.97;;;18.27;66.86
72802;BME280;61891;55.818;37.084;2023-05-24T03:47:48;99447.44;;;18.35;66.67
72802;BME280;61891;55.818;37.084;2023-05-24T03:50:14;99457.94;;;18.43;66.98
72802;BME280;61891;55.818;37.084;2023-05-24T03:52:41;99419.47;;;18.18;66.68
72802;BME280;61891;55.818;37.084;2023-05-24T03:55:07;99450.31;;;18.40;66.59
72802;BME280;61891;55.818;37.084;2023-05-24T03:57:32;99433.63;;;18.31;66.33
72802;BME280;61891;55.818;37.084;2023-05-24T03:59:58;99447.19;;;18.43;66.16
72802;BME280;61891;55.818;37.084;2023-05-24T04:02:26;99420.88;;;18.27;66.40
72802;BME280;61891;55.818;37.084;2023-05-24T04:04:52;99426.97;;;18.41;66.31
72802;BME280;61891;55.818;37.084;2023-05-24T04:07:17;99449.59;;;18.58;66.46
72802;BME280;61891;55.818;37.084;2023-05-24T04:09:44;99441.31;;;18.66;66.06
72802;BME280;61891;55.818;37.084;2023-05-24T04:12:10;99422.13;;;18.56;66.00
72802;BME280;61891;55.818;37.084;2023-05-24T04:14:40;99414.28;;;18.54;65.88
72802;BME280;61891;55.818;37.084;2023-05-24T04:17:06;99433.84;;;18.68;65.59
72802;BME280;61891;55.818;37.084;2023-05-24T04:19:32;99441.19;;;18.79;66.02
72802;BME280;61891;55.818;37.084;2023-05-24T04:21:58;99438.25;;;18.87;65.15
72802;BME280;61891;55.818;37.084;2023-05-24T04:24:24;99415.59;;;18.77;65.34
72802;BME280;61891;55.818;37.084;2023-05-24T04:26:50;99440.00;;;19.00;65.51
72802;BME280;61891;55.818;37.084;2023-05-24T04:29:16;99408.47;;;18.89;64.96
72802;BME280;61891;55.818;37.084;2023-05-24T04:31:43;99437.38;;;19.18;64.58
72802;BME280;61891;55.818;37.084;2023-05-24T04:34:09;99411.22;;;19.07;64.43
72802;BME280;61891;55.818;37.084;2023-05-24T04:36:37;99427.38;;;19.25;64.22
72802;BME280;61891;55.818;37.084;2023-05-24T04:39:03;99438.22;;;19.37;64.55
72802;BME280;61891;55.818;37.084;2023-05-24T04:41:30;99445.63;;;19.42;64.81
72802;BME280;61891;55.818;37.084;2023-05-24T04:43:57;99435.31;;;19.39;64.15
72802;BME280;61891;55.818;37.084;2023-05-24T04:46:26;99450.91;;;19.55;63.61
72802;BME280;61891;55.818;37.084;2023-05-24T04:48:52;99429.03;;;19.45;63.95
72802;BME280;61891;55.818;37.084;2023-05-24T04:51:20;99452.47;;;19.62;63.79
72802;BME280;61891;55.818;37.084;2023-05-24T04:53:46;99453.88;;;19.65;63.63
72802;BME280;61891;55.818;37.084;2023-05-24T04:56:12;99444.78;;;19.66;63.66
72802;BME280;61891;55.818;37.084;2023-05-24T04:58:41;99451.94;;;19.72;63.34
72802;BME280;61891;55.818;37.084;2023-05-24T05:01:07;99456.44;;;19.78;63.19
72802;BME280;61891;55.818;37.084;2023-05-24T05:03:32;99432.53;;;19.70;62.78
72802;BME280;61891;55.818;37.084;2023-05-24T05:05:58;99450.53;;;19.88;62.78
72802;BME280;61891;55.818;37.084;2023-05-24T05:08:24;99425.50;;;19.69;62.58
72802;BME280;61891;55.818;37.084;2023-05-24T05:10:50;99463.31;;;19.92;62.54
72802;BME280;61891;55.818;37.084;2023-05-24T05:13:15;99462.03;;;19.95;62.63
72802;BME280;61891;55.818;37.084;2023-05-24T05:15:41;99469.28;;;19.94;62.21
72802;BME280;61891;55.818;37.084;2023-05-24T05:18:07;99445.00;;;19.83;62.35
72802;BME280;61891;55.818;37.084;2023-05-24T05:20:32;99463.31;;;19.92;62.46
72802;BME280;61891;55.818;37.084;2023-05-24T05:22:58;99468.63;;;19.99;62.08
72802;BME280;61891;55.818;37.084;2023-05-24T05:25:24;99451.66;;;19.99;61.91
72802;BME280;61891;55.818;37.084;2023-05-24T05:27:49;99463.97;;;20.06;61.53
72802;BME280;61891;55.818;37.084;2023-05-24T05:30:15;99454.03;;;20.07;61.60
72802;BME280;61891;55.818;37.084;2023-05-24T05:32:41;99470.84;;;20.20;61.70
72802;BME280;61891;55.818;37.084;2023-05-24T05:35:07;99465.91;;;20.17;61.59
72802;BME280;61891;55.818;37.084;2023-05-24T05:37:33;99468.81;;;20.16;61.09
72802;BME280;61891;55.818;37.084;2023-05-24T05:39:58;99458.97;;;20.10;61.25
72802;BME280;61891;55.818;37.084;2023-05-24T05:42:24;99467.78;;;20.17;61.24
72802;BME280;61891;55.818;37.084;2023-05-24T05:44:50;99444.31;;;20.06;60.83
72802;BME280;61891;55.818;37.084;2023-05-24T05:47:16;99458.50;;;20.13;60.90
72802;BME280;61891;55.818;37.084;2023-05-24T05:49:42;99464.34;;;20.10;60.86
72802;BME280;61891;55.818;37.084;2023-05-24T05:52:08;99459.78;;;20.10;60.82
72802;BME280;61891;55.818;37.084;2023-05-24T05:54:33;99454.56;;;19.97;60.96
72802;BME280;61891;55.818;37.084;2023-05-24T05:57:00;99453.81;;;19.90;60.77
72802;BME280;61891;55.818;37.084;2023-05-24T05:59:25;99463.97;;;19.88;60.62
72802;BME280;61891;55.818;37.084;2023-05-24T06:01:51;99444.69;;;19.73;61.00
72802;BME280;61891;55.818;37.084;2023-05-24T06:04:17;99466.91;;;19.86;60.93
72802;BME280;61891;55.818;37.084;2023-05-24T06:06:43;99465.84;;;19.87;60.84
72802;BME280;61891;55.818;37.084;2023-05-24T06:09:12;99461.66;;;19.91;60.63
72802;BME280;61891;55.818;37.084;2023-05-24T06:11:38;99455.69;;;19.89;60.75
72802;BME280;61891;55.818;37.084;2023-05-24T06:14:07;99455.84;;;19.94;61.30
72802;BME280;61891;55.818;37.084;2023-05-24T06:16:33;99453.28;;;20.00;61.51
72802;BME280;61891;55.818;37.084;2023-05-24T06:18:58;99453.88;;;20.02;61.75
72802;BME280;61891;55.818;37.084;2023-05-24T06:21:24;99455.53;;;20.03;62.23
72802;BME280;61891;55.818;37.084;2023-05-24T06:23:51;99447.91;;;20.00;61.99
72802;BME280;61891;55.818;37.084;2023-05-24T06:26:16;99458.59;;;20.06;61.29
72802;BME280;61891;55.818;37.084;2023-05-24T06:28:42;99438.78;;;20.01;61.42
72802;BME280;61891;55.818;37.084;2023-05-24T06:31:08;99438.63;;;20.14;61.69
72802;BME280;61891;55.818;37.084;2023-05-24T06:33:34;99456.69;;;20.25;61.65
72802;BME280;61891;55.818;37.084;2023-05-24T06:35:59;99439.81;;;20.18;61.08
72802;BME280;61891;55.818;37.084;2023-05-24T06:38:25;99443.81;;;20.27;60.72
72802;BME280;61891;55.818;37.084;2023-05-24T06:40:52;99445.25;;;20.29;60.70
72802;BME280;61891;55.818;37.084;2023-05-24T06:43:18;99449.22;;;20.27;60.69
72802;BME280;61891;55.818;37.084;2023-05-24T06:45:45;99422.31;;;20.09;60.91
72802;BME280;61891;55.818;37.084;2023-05-24T06:48:11;99430.19;;;20.10;61.05
72802;BME280;61891;55.818;37.084;2023-05-24T06:50:36;99429.81;;;20.07;60.98
72802;BME280;61891;55.818;37.084;2023-05-24T06:53:02;99437.88;;;20.07;61.07
72802;BME280;61891;55.818;37.084;2023-05-24T06:55:28;99448.47;;;20.20;61.30
72802;BME280;61891;55.818;37.084;2023-05-24T06:57:54;99429.59;;;20.08;61.35
72802;BME280;61891;55.818;37.084;2023-05-24T07:00:20;99462.44;;;20.28;61.00
72802;BME280;61891;55.818;37.084;2023-05-24T07:02:45;99416.72;;;20.10;61.67
72802;BME280;61891;55.818;37.084;2023-05-24T07:05:11;99462.22;;;20.30;61.57
72802;BME280;61891;55.818;37.084;2023-05-24T07:07:41;99431.69;;;20.06;61.24
72802;BME280;61891;55.818;37.084;2023-05-24T07:10:09;99456.63;;;20.13;61.71
72802;BME280;61891;55.818;37.084;2023-05-24T07:12:36;99448.59;;;19.95;61.88
72802;BME280;61891;55.818;37.084;2023-05-24T07:15:03;99464.94;;;19.93;62.26
72802;BME280;61891;55.818;37.084;2023-05-24T07:17:29;99464.66;;;19.83;61.89
72802;BME280;61891;55.818;37.084;2023-05-24T07:19:55;99474.22;;;19.79;61.91
72802;BME280;61891;55.818;37.084;2023-05-24T07:22:21;99438.28;;;19.55;62.31
72802;BME280;61891;55.818;37.084;2023-05-24T07:24:48;99458.91;;;19.61;62.75
72802;BME280;61891;55.818;37.084;2023-05-24T07:27:14;99453.19;;;19.51;62.60
72802;BME280;61891;55.818;37.084;2023-05-24T07:29:40;99440.31;;;19.35;62.80
72802;BME280;61891;55.818;37.084;2023-05-24T07:32:06;99460.31;;;19.39;63.25
72802;BME280;61891;55.818;37.084;2023-05-24T07:34:32;99458.69;;;19.38;63.28
72802;BME280;61891;55.818;37.084;2023-05-24T07:37:00;99466.38;;;19.35;63.30
72802;BME280;61891;55.818;37.084;2023-05-24T07:39:26;99455.28;;;19.24;63.58
72802;BME280;61891;55.818;37.084;2023-05-24T07:41:53;99458.16;;;19.29;63.33
72802;BME280;61891;55.818;37.084;2023-05-24T07:44:19;99450.53;;;19.26;63.72
72802;BME280;61891;55.818;37.084;2023-05-24T07:46:45;99458.91;;;19.37;63.36
72802;BME280;61891;55.818;37.084;2023-05-24T07:49:11;99471.09;;;19.39;63.51
72802;BME280;61891;55.818;37.084;2023-05-24T07:51:37;99454.84;;;19.27;63.07
72802;BME280;61891;55.818;37.084;2023-05-24T07:54:03;99458.47;;;19.40;63.51
72802;BME280;61891;55.818;37.084;2023-05-24T07:56:29;99473.09;;;19.44;63.35
72802;BME280;61891;55.818;37.084;2023-05-24T07:58:56;99462.94;;;19.46;63.51
72802;BME280;61891;55.818;37.084;2023-05-24T08:01:29;99451.94;;;19.54;63.59
72802;BME280;61891;55.818;37.084;2023-05-24T08:03:55;99470.47;;;19.80;63.09
72802;BME280;61891;55.818;37.084;2023-05-24T08:06:21;99471.66;;;20.03;62.79
72802;BME280;61891;55.818;37.084;2023-05-24T08:08:48;99475.16;;;20.21;63.07
72802;BME280;61891;55.818;37.084;2023-05-24T08:11:14;99481.97;;;20.42;62.73
72802;BME280;61891;55.818;37.084;2023-05-24T08:13:40;99466.09;;;20.52;62.41
72802;BME280;61891;55.818;37.084;2023-05-24T08:16:05;99477.16;;;20.74;61.76
72802;BME280;61891;55.818;37.084;2023-05-24T08:18:31;99491.66;;;20.91;61.07
72802;BME280;61891;55.818;37.084;2023-05-24T08:20:57;99469.03;;;20.92;60.90
72802;BME280;61891;55.818;37.084;2023-05-24T08:23:23;99468.94;;;20.99;60.66
72802;BME280;61891;55.818;37.084;2023-05-24T08:25:49;99482.06;;;21.07;60.32
72802;BME280;61891;55.818;37.084;2023-05-24T08:28:14;99493.31;;;21.04;60.89
72802;BME280;61891;55.818;37.084;2023-05-24T08:30:41;99467.41;;;20.91;60.78
72802;BME280;61891;55.818;37.084;2023-05-24T08:33:08;99490.03;;;21.02;60.36
72802;BME280;61891;55.818;37.084;2023-05-24T08:35:33;99475.34;;;20.86;60.11
72802;BME280;61891;55.818;37.084;2023-05-24T08:38:00;99503.72;;;20.89;59.98
72802;BME280;61891;55.818;37.084;2023-05-24T08:40:26;99502.81;;;20.77;60.25
72802;BME280;61891;55.818;37.084;2023-05-24T08:42:52;99499.84;;;20.67;60.68
72802;BME280;61891;55.818;37.084;2023-05-24T08:45:20;99500.63;;;20.55;60.56
72802;BME280;61891;55.818;37.084;2023-05-24T08:47:46;99501.63;;;20.43;60.71
72802;BME280;61891;55.818;37.084;2023-05-24T08:50:14;99490.03;;;20.42;61.26
72802;BME280;61891;55.818;37.084;2023-05-24T08:52:41;99472.63;;;20.26;60.98
72802;BME280;61891;55.818;37.084;2023-05-24T08:55:07;99486.00;;;20.33;61.32
72802;BME280;61891;55.818;37.084;2023-05-24T08:57:34;99476.72;;;20.29;61.71
72802;BME280;61891;55.818;37.084;2023-05-24T09:00:05;99390.97;;;19.84;61.83
72802;BME280;61891;55.818;37.084;2023-05-24T09:02:32;99492.25;;;20.64;61.70
72802;BME280;61891;55.818;37.084;2023-05-24T09:04:58;99489.44;;;20.70;61.57
72802;BME280;61891;55.818;37.084;2023-05-24T09:07:25;99474.44;;;20.63;61.73
72802;BME280;61891;55.818;37.084;2023-05-24T09:10:04;99483.13;;;20.76;61.83
72802;BME280;61891;55.818;37.084;2023-05-24T09:12:30;99490.94;;;20.84;61.60
72802;BME280;61891;55.818;37.084;2023-05-24T09:15:04;99457.72;;;20.72;61.53
72802;BME280;61891;55.818;37.084;2023-05-24T09:17:31;99461.28;;;20.84;60.81
72802;BME280;61891;55.818;37.084;2023-05-24T09:19:57;99470.22;;;20.97;61.18
72802;BME280;61891;55.818;37.084;2023-05-24T09:22:29;99475.72;;;21.02;60.84
72802;BME280;61891;55.818;37.084;2023-05-24T09:25:01;99472.81;;;21.03;61.05
72802;BME280;61891;55.818;37.084;2023-05-24T09:27:31;99480.31;;;21.13;61.08
72802;BME280;61891;55.818;37.084;2023-05-24T09:29:57;99468.00;;;21.05;60.72
72802;BME280;61891;55.818;37.084;2023-05-24T09:32:23;99475.19;;;21.23;60.66
72802;BME280;61891;55.818;37.084;2023-05-24T09:34:52;99475.69;;;21.32;60.93
72802;BME280;61891;55.818;37.084;2023-05-24T09:37:20;99467.81;;;21.42;60.27
72802;BME280;61891;55.818;37.084;2023-05-24T09:39:48;99474.03;;;21.54;60.11
72802;BME280;61891;55.818;37.084;2023-05-24T09:42:17;99477.56;;;21.66;60.26
72802;BME280;61891;55.818;37.084;2023-05-24T09:45:01;99476.81;;;21.82;60.11
72802;BME280;61891;55.818;37.084;2023-05-24T09:47:30;99480.91;;;21.97;60.02
72802;BME280;61891;55.818;37.084;2023-05-24T09:49:58;99479.28;;;22.07;59.49
72802;BME280;61891;55.818;37.084;2023-05-24T09:52:24;99480.66;;;22.10;59.71
72802;BME280;61891;55.818;37.084;2023-05-24T09:54:50;99484.53;;;22.14;59.68
72802;BME280;61891;55.818;37.084;2023-05-24T09:57:16;99465.78;;;22.07;59.27
72802;BME280;61891;55.818;37.084;2023-05-24T09:59:42;99485.31;;;22.26;59.67
72802;BME280;61891;55.818;37.084;2023-05-24T10:02:10;99465.25;;;22.22;59.66
72802;BME280;61891;55.818;37.084;2023-05-24T10:04:37;99480.94;;;22.37;59.03
72802;BME280;61891;55.818;37.084;2023-05-24T10:07:04;99486.34;;;22.37;59.03
72802;BME280;61891;55.818;37.084;2023-05-24T10:09:31;99459.28;;;22.20;59.21
72802;BME280;61891;55.818;37.084;2023-05-24T10:12:07;99487.31;;;22.31;59.29
72802;BME280;61891;55.818;37.084;2023-05-24T10:14:37;99466.69;;;22.13;59.02
72802;BME280;61891;55.818;37.084;2023-05-24T10:17:03;99464.13;;;22.06;59.13
72802;BME280;61891;55.818;37.084;2023-05-24T10:19:33;99497.91;;;22.21;59.50
72802;BME280;61891;55.818;37.084;2023-05-24T10:22:00;99495.09;;;22.15;59.09
72802;BME280;61891;55.818;37.084;2023-05-24T10:24:34;99480.44;;;22.00;59.27
72802;BME280;61891;55.818;37.084;2023-05-24T10:27:04;99472.34;;;21.88;59.34
72802;BME280;61891;55.818;37.084;2023-05-24T10:29:53;99487.25;;;21.91;59.07
72802;BME280;61891;55.818;37.084;2023-05-24T10:32:24;99422.91;;;21.47;59.45
72802;BME280;61891;55.818;37.084;2023-05-24T10:35:00;99500.03;;;21.95;59.29
72802;BME280;61891;55.818;37.084;2023-05-24T10:37:27;99501.09;;;21.94;59.40
72802;BME280;61891;55.818;37.084;2023-05-24T10:39:54;99481.41;;;21.82;59.23
72802;BME280;61891;55.818;37.084;2023-05-24T10:42:20;99502.03;;;22.00;59.51
72802;BME280;61891;55.818;37.084;2023-05-24T10:44:46;99494.97;;;21.99;59.37
72802;BME280;61891;55.818;37.084;2023-05-24T10:47:12;99506.63;;;22.11;59.03
72802;BME280;61891;55.818;37.084;2023-05-24T10:49:54;99491.13;;;22.06;58.60
72802;BME280;61891;55.818;37.084;2023-05-24T10:52:33;99514.09;;;22.21;58.60
72802;BME280;61891;55.818;37.084;2023-05-24T10:55:07;99479.97;;;22.03;58.96
72802;BME280;61891;55.818;37.084;2023-05-24T10:57:37;99496.84;;;22.22;58.77
72802;BME280;61891;55.818;37.084;2023-05-24T11:02:48;99498.25;;;22.24;58.14
72802;BME280;61891;55.818;37.084;2023-05-24T11:05:14;99493.53;;;22.31;58.40
72802;BME280;61891;55.818;37.084;2023-05-24T11:07:40;99519.63;;;22.54;58.21
72802;BME280;61891;55.818;37.084;2023-05-24T11:10:14;99515.81;;;22.67;58.48
72802;BME280;61891;55.818;37.084;2023-05-24T11:12:41;99518.94;;;22.87;57.69
72802;BME280;61891;55.818;37.084;2023-05-24T11:15:10;99522.31;;;23.11;57.25
72802;BME280;61891;55.818;37.084;2023-05-24T11:20:43;99519.28;;;23.41;56.12
72802;BME280;61891;55.818;37.084;2023-05-24T11:23:13;99519.03;;;23.76;55.35
72802;BME280;61891;55.818;37.084;2023-05-24T11:25:40;99504.16;;;24.17;54.80
72802;BME280;61891;55.818;37.084;2023-05-24T11:28:07;99511.50;;;24.92;53.91
72802;BME280;61891;55.818;37.084;2023-05-24T11:30:42;99513.94;;;25.90;52.76
72802;BME280;61891;55.818;37.084;2023-05-24T11:33:15;99522.00;;;27.30;50.46
72802;BME280;61891;55.818;37.084;2023-05-24T11:35:40;99526.63;;;27.40;50.36
72802;BME280;61891;55.818;37.084;2023-05-24T11:38:15;99501.03;;;27.31;49.19
72802;BME280;61891;55.818;37.084;2023-05-24T11:40:42;99519.81;;;27.68;48.60
72802;BME280;61891;55.818;37.084;2023-05-24T11:43:19;99511.28;;;28.00;47.24
72802;BME280;61891;55.818;37.084;2023-05-24T11:45:50;99522.28;;;27.69;47.78
72802;BME280;61891;55.818;37.084;2023-05-24T11:48:18;99494.78;;;27.20;48.62
72802;BME280;61891;55.818;37.084;2023-05-24T11:50:47;99511.66;;;27.42;47.29
72802;BME280;61891;55.818;37.084;2023-05-24T11:53:14;99487.16;;;27.12;47.50
72802;BME280;61891;55.818;37.084;2023-05-24T11:55:40;99512.22;;;27.24;47.90
72802;BME280;61891;55.818;37.084;2023-05-24T11:58:18;99521.41;;;26.92;46.80
72802;BME280;61891;55.818;37.084;2023-05-24T12:00:48;99497.69;;;26.62;47.86
72802;BME280;61891;55.818;37.084;2023-05-24T12:03:13;99507.44;;;26.43;47.23
72802;BME280;61891;55.818;37.084;2023-05-24T12:05:39;99509.44;;;26.11;48.05
72802;BME280;61891;55.818;37.084;2023-05-24T12:08:07;99520.47;;;25.94;47.71
72802;BME280;61891;55.818;37.084;2023-05-24T12:10:34;99515.16;;;25.67;48.55
72802;BME280;61891;55.818;37.084;2023-05-24T12:13:04;99521.78;;;25.49;48.50
72802;BME280;61891;55.818;37.084;2023-05-24T12:15:34;99517.78;;;25.25;49.17
72802;BME280;61891;55.818;37.084;2023-05-24T12:18:00;99518.19;;;25.06;49.10
72802;BME280;61891;55.818;37.084;2023-05-24T12:20:28;99495.16;;;25.09;48.83
72802;BME280;61891;55.818;37.084;2023-05-24T12:22:54;99504.19;;;25.20;48.85
72802;BME280;61891;55.818;37.084;2023-05-24T12:25:22;99504.13;;;25.47;48.76
72802;BME280;61891;55.818;37.084;2023-05-24T12:27:54;99488.44;;;25.17;48.41
72802;BME280;61891;55.818;37.084;2023-05-24T12:30:22;99493.25;;;25.10;49.00
72802;BME280;61891;55.818;37.084;2023-05-24T12:32:49;99486.03;;;24.93;49.01
72802;BME280;61891;55.818;37.084;2023-05-24T12:35:17;99490.53;;;24.83;48.57
72802;BME280;61891;55.818;37.084;2023-05-24T12:37:43;99504.31;;;24.76;48.98
72802;BME280;61891;55.818;37.084;2023-05-24T12:40:16;99505.63;;;24.73;48.76
72802;BME280;61891;55.818;37.084;2023-05-24T12:42:52;99504.91;;;24.83;48.46
72802;BME280;61891;55.818;37.084;2023-05-24T12:45:28;99497.13;;;24.65;49.47
72802;BME280;61891;55.818;37.084;2023-05-24T12:47:55;99475.00;;;24.46;49.41
72802;BME280;61891;55.818;37.084;2023-05-24T12:50:23;99498.16;;;24.59;49.26
72802;BME280;61891;55.818;37.084;2023-05-24T12:52:50;99471.78;;;24.49;48.89
72802;BME280;61891;55.818;37.084;2023-05-24T12:55:22;99509.16;;;24.74;49.31
72802;BME280;61891;55.818;37.084;2023-05-24T12:57:48;99484.50;;;24.49;49.07
72802;BME280;61891;55.818;37.084;2023-05-24T13:00:25;99497.09;;;24.60;49.40
72802;BME280;61891;55.818;37.084;2023-05-24T13:02:56;99502.00;;;24.63;49.43
72802;BME280;61891;55.818;37.084;2023-05-24T13:05:26;99498.97;;;24.59;49.13
72802;BME280;61891;55.818;37.084;2023-05-24T13:07:54;99432.53;;;24.57;48.97
72802;BME280;61891;55.818;37.084;2023-05-24T13:10:22;99510.09;;;25.12;48.92
72802;BME280;61891;55.818;37.084;2023-05-24T13:12:48;99506.66;;;25.21;48.54